sensor_id;sensor_type;location;lat;lon;timestamp;pressure;altitude;pressure_sealevel;temperature;humidity
8543;BME280;4309;42.658;23.380;2023-01-28T00:00:13;94098.41;;;0.75;90.32
8543;BME280;4309;42.658;23.380;2023-01-28T00:00:44;94091.47;;;0.76;89.23
8543;BME280;4309;42.658;23.380;2023-01-28T00:01:16;94090.25;;;0.86;89.70
8543;BME280;4309;42.658;23.380;2023-01-28T00:01:47;94091.84;;;0.87;89.04
8543;BME280;4309;42.658;23.380;2023-01-28T00:02:18;94101.69;;;0.84;89.80
8543;BME280;4309;42.658;23.380;2023-01-28T00:02:50;94093.44;;;0.88;89.37
8543;BME280;4309;42.658;23.380;2023-01-28T00:03:21;94095.72;;;0.83;89.12
8543;BME280;4309;42.658;23.380;2023-01-28T00:03:51;94101.69;;;0.84;89.59
8543;BME280;4309;42.658;23.380;2023-01-28T00:04:23;94101.22;;;0.80;89.17
8543;BME280;4309;42.658;23.380;2023-01-28T00:04:54;94097.31;;;0.70;89.89
8543;BME280;4309;42.658;23.380;2023-01-28T00:05:25;94100.16;;;0.75;88.95
8543;BME280;4309;42.658;23.380;2023-01-28T00:06:01;94089.16;;;0.81;89.48
8543;BME280;4309;42.658;23.380;2023-01-28T00:06:32;94098.22;;;0.77;88.67
8543;BME280;4309;42.658;23.380;2023-01-28T00:07:05;94104.16;;;0.77;88.77
8543;BME280;4309;42.658;23.380;2023-01-28T00:07:37;94097.69;;;0.81;89.21
8543;BME280;4309;42.658;23.380;2023-01-28T00:08:09;94100.44;;;0.80;89.13
8543;BME280;4309;42.658;23.380;2023-01-28T00:08:41;94093.50;;;0.80;88.67
8543;BME280;4309;42.658;23.380;2023-01-28T00:09:11;94105.31;;;0.75;89.20
8543;BME280;4309;42.658;23.380;2023-01-28T00:09:43;94104.78;;;0.79;89.51
8543;BME280;4309;42.658;23.380;2023-01-28T00:10:15;94102.91;;;0.73;89.08
8543;BME280;4309;42.658;23.380;2023-01-28T00:10:45;94104.91;;;0.63;89.79
8543;BME280;4309;42.658;23.380;2023-01-28T00:11:17;94107.25;;;0.73;89.78
8543;BME280;4309;42.658;23.380;2023-01-28T00:11:48;94099.19;;;0.76;89.04
8543;BME280;4309;42.658;23.380;2023-01-28T00:12:20;94105.84;;;0.70;89.71
8543;BME280;4309;42.658;23.380;2023-01-28T00:12:51;94105.84;;;0.70;89.68
8543;BME280;4309;42.658;23.380;2023-01-28T00:13:22;94108.22;;;0.72;90.25
8543;BME280;4309;42.658;23.380;2023-01-28T00:13:54;94114.00;;;0.74;88.94
8543;BME280;4309;42.658;23.380;2023-01-28T00:14:25;94112.63;;;0.63;88.79
8543;BME280;4309;42.658;23.380;2023-01-28T00:14:55;94118.25;;;0.67;89.92
8543;BME280;4309;42.658;23.380;2023-01-28T00:15:26;94121.16;;;0.64;89.18
8543;BME280;4309;42.658;23.380;2023-01-28T00:15:59;94121.63;;;0.67;89.75
8543;BME280;4309;42.658;23.380;2023-01-28T00:16:30;94112.03;;;0.61;89.31
8543;BME280;4309;42.658;23.380;2023-01-28T00:17:03;94112.34;;;0.58;90.31
8543;BME280;4309;42.658;23.380;2023-01-28T00:17:36;94122.03;;;0.56;90.44
8543;BME280;4309;42.658;23.380;2023-01-28T00:18:07;94117.50;;;0.58;89.87
8543;BME280;4309;42.658;23.380;2023-01-28T00:18:37;94121.16;;;0.64;90.56
8543;BME280;4309;42.658;23.380;2023-01-28T00:19:08;94120.63;;;0.68;89.95
8543;BME280;4309;42.658;23.380;2023-01-28T00:19:40;94116.47;;;0.67;90.06
8543;BME280;4309;42.658;23.380;2023-01-28T00:20:11;94118.69;;;0.70;90.33
8543;BME280;4309;42.658;23.380;2023-01-28T00:20:42;94108.59;;;0.69;90.42
8543;BME280;4309;42.658;23.380;2023-01-28T00:21:14;94128.00;;;0.71;90.46
8543;BME280;4309;42.658;23.380;2023-01-28T00:21:45;94128.47;;;0.75;89.71
8543;BME280;4309;42.658;23.380;2023-01-28T00:22:16;94124.31;;;0.74;89.76
8543;BME280;4309;42.658;23.380;2023-01-28T00:22:49;94124.13;;;0.75;89.60
8543;BME280;4309;42.658;23.380;2023-01-28T00:23:20;94118.53;;;0.72;89.71
8543;BME280;4309;42.658;23.380;2023-01-28T00:23:52;94122.84;;;0.71;90.30
8543;BME280;4309;42.658;23.380;2023-01-28T00:24:24;94115.84;;;0.65;89.31
8543;BME280;4309;42.658;23.380;2023-01-28T00:24:55;94127.81;;;0.73;89.20
8543;BME280;4309;42.658;23.380;2023-01-28T00:25:25;94125.25;;;0.73;89.15
8543;BME280;4309;42.658;23.380;2023-01-28T00:25:57;94130.06;;;0.76;90.28
8543;BME280;4309;42.658;23.380;2023-01-28T00:26:28;94122.63;;;0.81;90.36
8543;BME280;4309;42.658;23.380;2023-01-28T00:26:59;94128.03;;;0.86;89.00
8543;BME280;4309;42.658;23.380;2023-01-28T00:27:31;94130.06;;;0.76;88.82
8543;BME280;4309;42.658;23.380;2023-01-28T00:28:02;94136.00;;;0.76;89.82
8543;BME280;4309;42.658;23.380;2023-01-28T00:28:33;94124.31;;;0.74;89.53
8543;BME280;4309;42.658;23.380;2023-01-28T00:29:05;94125.25;;;0.73;89.15
8543;BME280;4309;42.658;23.380;2023-01-28T00:29:36;94128.91;;;0.78;89.22
8543;BME280;4309;42.658;23.380;2023-01-28T00:30:08;94130.97;;;0.83;89.61
8543;BME280;4309;42.658;23.380;2023-01-28T00:30:40;94130.84;;;0.76;89.71
8543;BME280;4309;42.658;23.380;2023-01-28T00:31:14;94127.75;;;0.81;89.69
8543;BME280;4309;42.658;23.380;2023-01-28T00:31:46;94132.56;;;0.84;89.71
8543;BME280;4309;42.658;23.380;2023-01-28T00:32:18;94128.03;;;0.86;88.96
8543;BME280;4309;42.658;23.380;2023-01-28T00:32:48;94124.50;;;0.87;88.94
8543;BME280;4309;42.658;23.380;2023-01-28T00:33:19;94127.78;;;0.95;88.97
8543;BME280;4309;42.658;23.380;2023-01-28T00:33:50;94120.88;;;0.96;88.94
8543;BME280;4309;42.658;23.380;2023-01-28T00:35:07;94122.38;;;0.90;88.92
8543;BME280;4309;42.658;23.380;2023-01-28T00:35:39;94133.19;;;0.86;88.63
8543;BME280;4309;42.658;23.380;2023-01-28T00:36:10;94126.72;;;0.90;88.53
8543;BME280;4309;42.658;23.380;2023-01-28T00:36:41;94134.72;;;0.95;89.09
8543;BME280;4309;42.658;23.380;2023-01-28T00:37:14;94130.19;;;0.97;88.13
8543;BME280;4309;42.658;23.380;2023-01-28T00:37:45;94128.94;;;0.93;89.10
8543;BME280;4309;42.658;23.380;2023-01-28T00:38:16;94129.75;;;0.93;88.85
8543;BME280;4309;42.658;23.380;2023-01-28T00:38:49;94131.97;;;0.96;88.09
8543;BME280;4309;42.658;23.380;2023-01-28T00:39:20;94130.19;;;0.97;89.26
8543;BME280;4309;42.658;23.380;2023-01-28T00:39:51;94129.91;;;0.92;89.19
8543;BME280;4309;42.658;23.380;2023-01-28T00:40:22;94130.91;;;0.91;87.92
8543;BME280;4309;42.658;23.380;2023-01-28T00:40:53;94131.91;;;0.82;88.60
8543;BME280;4309;42.658;23.380;2023-01-28T00:41:26;94134.59;;;0.88;87.77
8543;BME280;4309;42.658;23.380;2023-01-28T00:41:58;94135.69;;;0.94;87.95
8543;BME280;4309;42.658;23.380;2023-01-28T00:42:29;94115.47;;;0.91;88.12
8543;BME280;4309;42.658;23.380;2023-01-28T00:43:00;94133.91;;;0.94;87.53
8543;BME280;4309;42.658;23.380;2023-01-28T00:43:31;94144.19;;;0.94;87.27
8543;BME280;4309;42.658;23.380;2023-01-28T00:44:02;94138.69;;;0.83;88.47
8543;BME280;4309;42.658;23.380;2023-01-28T00:44:33;94135.38;;;0.74;88.04
8543;BME280;4309;42.658;23.380;2023-01-28T00:45:06;94138.41;;;0.78;88.98
8543;BME280;4309;42.658;23.380;2023-01-28T00:45:37;94131.75;;;0.83;88.85
8543;BME280;4309;42.658;23.380;2023-01-28T00:46:09;94132.09;;;0.80;88.24
8543;BME280;4309;42.658;23.380;2023-01-28T00:46:41;94137.41;;;0.79;88.87
8543;BME280;4309;42.658;23.380;2023-01-28T00:47:12;94146.00;;;0.71;88.86
8543;BME280;4309;42.658;23.380;2023-01-28T00:47:43;94134.91;;;0.71;88.25
8543;BME280;4309;42.658;23.380;2023-01-28T00:48:17;94135.09;;;0.69;88.73
8543;BME280;4309;42.658;23.380;2023-01-28T00:48:48;94139.34;;;0.62;89.42
8543;BME280;4309;42.658;23.380;2023-01-28T00:49:19;94140.59;;;0.66;88.40
8543;BME280;4309;42.658;23.380;2023-01-28T00:49:50;94143.44;;;0.71;89.38
8543;BME280;4309;42.658;23.380;2023-01-28T00:50:23;94144.06;;;0.73;88.51
8543;BME280;4309;42.658;23.380;2023-01-28T00:50:53;94137.59;;;0.77;89.64
8543;BME280;4309;42.658;23.380;2023-01-28T00:51:26;94143.56;;;0.78;88.43
8543;BME280;4309;42.658;23.380;2023-01-28T00:51:56;94140.63;;;0.81;88.40
8543;BME280;4309;42.658;23.380;2023-01-28T00:52:27;94138.41;;;0.78;88.31
8543;BME280;4309;42.658;23.380;2023-01-28T00:52:59;94141.16;;;0.76;88.47
8543;BME280;4309;42.658;23.380;2023-01-28T00:53:30;94131.03;;;0.75;88.85
8543;BME280;4309;42.658;23.380;2023-01-28T00:54:01;94139.03;;;0.80;88.55
8543;BME280;4309;42.658;23.380;2023-01-28T00:54:33;94147.81;;;0.85;88.85
8543;BME280;4309;42.658;23.380;2023-01-28T00:55:06;94137.97;;;0.89;88.66
8543;BME280;4309;42.658;23.380;2023-01-28T00:55:37;94149.25;;;0.88;87.95
8543;BME280;4309;42.658;23.380;2023-01-28T00:56:12;94144.28;;;0.86;88.36
8543;BME280;4309;42.658;23.380;2023-01-28T00:56:43;94137.19;;;0.88;87.85
8543;BME280;4309;42.658;23.380;2023-01-28T00:57:14;94152.44;;;0.90;88.45
8543;BME280;4309;42.658;23.380;2023-01-28T00:57:46;94144.00;;;0.81;88.61
8543;BME280;4309;42.658;23.380;2023-01-28T00:58:18;94141.84;;;0.70;88.18
8543;BME280;4309;42.658;23.380;2023-01-28T00:58:48;94141.56;;;0.65;87.97
8543;BME280;4309;42.658;23.380;2023-01-28T00:59:19;94145.84;;;0.73;89.07
8543;BME280;4309;42.658;23.380;2023-01-28T00:59:51;94141.56;;;0.65;88.58
8543;BME280;4309;42.658;23.380;2023-01-28T01:00:22;94142.91;;;0.61;89.21
8543;BME280;4309;42.658;23.380;2023-01-28T01:00:56;94142.16;;;0.53;88.69
8543;BME280;4309;42.658;23.380;2023-01-28T01:01:27;94145.69;;;0.52;88.79
8543;BME280;4309;42.658;23.380;2023-01-28T01:01:59;94145.69;;;0.52;88.93
8543;BME280;4309;42.658;23.380;2023-01-28T01:02:42;94140.88;;;0.71;89.10
8543;BME280;4309;42.658;23.380;2023-01-28T01:03:12;94142.47;;;0.72;88.25
8543;BME280;4309;42.658;23.380;2023-01-28T01:03:44;94145.13;;;0.64;88.56
8543;BME280;4309;42.658;23.380;2023-01-28T01:04:15;94142.44;;;0.58;89.29
8543;BME280;4309;42.658;23.380;2023-01-28T01:04:55;94142.91;;;0.61;89.38
8543;BME280;4309;42.658;23.380;2023-01-28T01:05:31;94139.16;;;0.64;88.63
8543;BME280;4309;42.658;23.380;2023-01-28T01:06:03;94139.91;;;0.50;89.12
8543;BME280;4309;42.658;23.380;2023-01-28T01:06:36;94143.00;;;0.45;89.37
8543;BME280;4309;42.658;23.380;2023-01-28T01:07:08;94141.56;;;0.43;89.46
8543;BME280;4309;42.658;23.380;2023-01-28T01:07:39;94143.78;;;0.46;90.48
8543;BME280;4309;42.658;23.380;2023-01-28T01:08:11;94148.75;;;0.47;89.72
8543;BME280;4309;42.658;23.380;2023-01-28T01:08:43;94142.97;;;0.53;90.16
8543;BME280;4309;42.658;23.380;2023-01-28T01:09:19;94137.63;;;0.55;90.47
8543;BME280;4309;42.658;23.380;2023-01-28T01:09:51;94145.69;;;0.52;90.70
8543;BME280;4309;42.658;23.380;2023-01-28T01:10:23;94141.44;;;0.59;90.41
8543;BME280;4309;42.658;23.380;2023-01-28T01:10:57;94139.97;;;0.64;90.41
8543;BME280;4309;42.658;23.380;2023-01-28T01:11:28;94140.16;;;0.63;89.21
8543;BME280;4309;42.658;23.380;2023-01-28T01:12:00;94142.97;;;0.68;89.46
8543;BME280;4309;42.658;23.380;2023-01-28T01:12:31;94152.19;;;0.62;89.05
8543;BME280;4309;42.658;23.380;2023-01-28T01:13:02;94145.88;;;0.50;89.02
8543;BME280;4309;42.658;23.380;2023-01-28T01:13:33;94137.97;;;0.52;89.89
8543;BME280;4309;42.658;23.380;2023-01-28T01:14:05;94137.47;;;0.56;90.76
8543;BME280;4309;42.658;23.380;2023-01-28T01:14:36;94146.66;;;0.51;90.78
8543;BME280;4309;42.658;23.380;2023-01-28T01:15:09;94140.38;;;0.53;89.73
8543;BME280;4309;42.658;23.380;2023-01-28T01:15:39;94138.59;;;0.54;89.30
8543;BME280;4309;42.658;23.380;2023-01-28T01:16:13;94144.44;;;0.48;90.33
8543;BME280;4309;42.658;23.380;2023-01-28T01:16:45;94144.25;;;0.49;90.53
8543;BME280;4309;42.658;23.380;2023-01-28T01:17:17;94146.81;;;0.49;90.08
8543;BME280;4309;42.658;23.380;2023-01-28T01:17:48;94139.56;;;0.53;91.31
8543;BME280;4309;42.658;23.380;2023-01-28T01:18:20;94151.91;;;0.57;91.16
8543;BME280;4309;42.658;23.380;2023-01-28T01:18:52;94147.13;;;0.54;91.16
8543;BME280;4309;42.658;23.380;2023-01-28T01:19:23;94145.41;;;0.47;89.80
8543;BME280;4309;42.658;23.380;2023-01-28T01:19:57;94144.38;;;0.56;89.91
8543;BME280;4309;42.658;23.380;2023-01-28T01:20:28;94151.03;;;0.50;90.86
8543;BME280;4309;42.658;23.380;2023-01-28T01:21:06;94142.59;;;0.56;89.85
8543;BME280;4309;42.658;23.380;2023-01-28T01:21:38;94149.41;;;0.49;90.02
8543;BME280;4309;42.658;23.380;2023-01-28T01:22:09;94150.25;;;0.42;90.44
8543;BME280;4309;42.658;23.380;2023-01-28T01:22:40;94148.56;;;0.34;90.32
8543;BME280;4309;42.658;23.380;2023-01-28T01:23:12;94151.47;;;0.31;89.85
8543;BME280;4309;42.658;23.380;2023-01-28T01:23:43;94153.91;;;0.47;89.79
8543;BME280;4309;42.658;23.380;2023-01-28T01:24:14;94147.47;;;0.51;89.81
8543;BME280;4309;42.658;23.380;2023-01-28T01:24:46;94159.34;;;0.52;89.29
8543;BME280;4309;42.658;23.380;2023-01-28T01:25:17;94147.75;;;0.56;89.83
8543;BME280;4309;42.658;23.380;2023-01-28T01:25:48;94154.38;;;0.51;90.04
8543;BME280;4309;42.658;23.380;2023-01-28T01:26:21;94148.31;;;0.44;89.57
8543;BME280;4309;42.658;23.380;2023-01-28T01:26:52;94145.94;;;0.42;89.54
8543;BME280;4309;42.658;23.380;2023-01-28T01:27:23;94130.03;;;0.39;90.78
8543;BME280;4309;42.658;23.380;2023-01-28T01:27:54;94159.22;;;0.46;89.71
8543;BME280;4309;42.658;23.380;2023-01-28T01:28:25;94152.94;;;0.48;90.80
8543;BME280;4309;42.658;23.380;2023-01-28T01:28:57;94153.75;;;0.49;90.57
8543;BME280;4309;42.658;23.380;2023-01-28T01:29:28;94147.53;;;0.43;89.86
8543;BME280;4309;42.658;23.380;2023-01-28T01:29:58;94150.56;;;0.47;91.09
8543;BME280;4309;42.658;23.380;2023-01-28T01:30:29;94153.47;;;0.44;90.60
8543;BME280;4309;42.658;23.380;2023-01-28T01:31:02;94151.91;;;0.35;90.89
8543;BME280;4309;42.658;23.380;2023-01-28T01:31:34;94146.38;;;0.46;90.23
8543;BME280;4309;42.658;23.380;2023-01-28T01:32:05;94147.69;;;0.42;89.96
8543;BME280;4309;42.658;23.380;2023-01-28T01:32:37;94149.28;;;0.43;90.08
8543;BME280;4309;42.658;23.380;2023-01-28T01:33:07;94155.88;;;0.45;90.81
8543;BME280;4309;42.658;23.380;2023-01-28T01:33:38;94143.00;;;0.45;90.30
8543;BME280;4309;42.658;23.380;2023-01-28T01:34:13;94152.94;;;0.48;90.08
8543;BME280;4309;42.658;23.380;2023-01-28T01:34:44;94151.78;;;0.51;89.79
8543;BME280;4309;42.658;23.380;2023-01-28T01:35:15;94143.47;;;0.49;89.72
8543;BME280;4309;42.658;23.380;2023-01-28T01:35:52;94151.97;;;0.49;90.00
8543;BME280;4309;42.658;23.380;2023-01-28T01:36:25;94145.00;;;0.58;90.28
8543;BME280;4309;42.658;23.380;2023-01-28T01:36:55;94145.19;;;0.56;90.45
8543;BME280;4309;42.658;23.380;2023-01-28T01:37:27;94149.28;;;0.65;90.27
8543;BME280;4309;42.658;23.380;2023-01-28T01:37:58;94153.84;;;0.55;90.12
8543;BME280;4309;42.658;23.380;2023-01-28T01:38:29;94147.63;;;0.50;89.62
8543;BME280;4309;42.658;23.380;2023-01-28T01:39:01;94153.06;;;0.55;90.07
8543;BME280;4309;42.658;23.380;2023-01-28T01:39:32;94157.69;;;0.59;89.19
8543;BME280;4309;42.658;23.380;2023-01-28T01:40:04;94146.59;;;0.59;88.96
8543;BME280;4309;42.658;23.380;2023-01-28T01:40:35;94155.00;;;0.53;89.23
8543;BME280;4309;42.658;23.380;2023-01-28T01:41:07;94159.81;;;0.56;89.33
8543;BME280;4309;42.658;23.380;2023-01-28T01:41:38;94140.63;;;0.58;88.92
8543;BME280;4309;42.658;23.380;2023-01-28T01:42:10;94148.81;;;0.62;89.50
8543;BME280;4309;42.658;23.380;2023-01-28T01:42:42;94155.13;;;0.59;89.66
8543;BME280;4309;42.658;23.380;2023-01-28T01:43:15;94151.50;;;0.68;89.41
8543;BME280;4309;42.658;23.380;2023-01-28T01:43:48;94150.31;;;0.56;88.56
8543;BME280;4309;42.658;23.380;2023-01-28T01:44:45;94154.66;;;0.56;89.57
8543;BME280;4309;42.658;23.380;2023-01-28T01:45:18;94151.91;;;0.57;88.77
8543;BME280;4309;42.658;23.380;2023-01-28T01:45:52;94149.91;;;0.45;88.81
8543;BME280;4309;42.658;23.380;2023-01-28T01:46:31;94150.22;;;0.50;90.30
8543;BME280;4309;42.658;23.380;2023-01-28T01:47:03;94154.19;;;0.52;89.43
8543;BME280;4309;42.658;23.380;2023-01-28T01:47:38;94154.53;;;0.49;89.91
8543;BME280;4309;42.658;23.380;2023-01-28T01:48:15;94153.06;;;0.55;90.66
8543;BME280;4309;42.658;23.380;2023-01-28T01:48:48;94154.19;;;0.52;90.67
8543;BME280;4309;42.658;23.380;2023-01-28T01:49:21;94149.88;;;0.53;90.33
8543;BME280;4309;42.658;23.380;2023-01-28T01:49:54;94151.91;;;0.57;90.63
8543;BME280;4309;42.658;23.380;2023-01-28T01:50:28;94151.09;;;0.57;90.07
8543;BME280;4309;42.658;23.380;2023-01-28T01:51:04;94155.81;;;0.53;90.72
8543;BME280;4309;42.658;23.380;2023-01-28T01:51:40;94146.31;;;0.54;89.69
8543;BME280;4309;42.658;23.380;2023-01-28T01:52:13;94149.34;;;0.57;90.18
8543;BME280;4309;42.658;23.380;2023-01-28T01:52:47;94147.88;;;0.63;90.06
8543;BME280;4309;42.658;23.380;2023-01-28T01:53:21;94150.22;;;0.50;90.13
8543;BME280;4309;42.658;23.380;2023-01-28T01:53:53;94148.09;;;0.53;89.71
8543;BME280;4309;42.658;23.380;2023-01-28T01:54:28;94159.00;;;0.55;90.30
8543;BME280;4309;42.658;23.380;2023-01-28T01:55:06;94152.72;;;0.58;90.88
8543;BME280;4309;42.658;23.380;2023-01-28T01:55:41;94158.47;;;0.60;89.69
8543;BME280;4309;42.658;23.380;2023-01-28T01:56:15;94151.28;;;0.55;90.86
8543;BME280;4309;42.658;23.380;2023-01-28T01:56:48;94154.41;;;0.43;90.14
8543;BME280;4309;42.658;23.380;2023-01-28T01:57:23;94155.19;;;0.51;90.58
8543;BME280;4309;42.658;23.380;2023-01-28T01:57:57;94150.63;;;0.61;89.81
8543;BME280;4309;42.658;23.380;2023-01-28T01:58:34;94154.78;;;0.62;90.23
8543;BME280;4309;42.658;23.380;2023-01-28T01:59:10;94161.16;;;0.66;89.79
8543;BME280;4309;42.658;23.380;2023-01-28T01:59:43;94152.72;;;0.58;90.51
8543;BME280;4309;42.658;23.380;2023-01-28T02:00:16;94146.13;;;0.55;90.00
8543;BME280;4309;42.658;23.380;2023-01-28T02:00:47;94158.66;;;0.58;90.72
8543;BME280;4309;42.658;23.380;2023-01-28T02:01:20;94160.25;;;0.59;89.55
8543;BME280;4309;42.658;23.380;2023-01-28T02:01:51;94156.25;;;0.57;89.70
8543;BME280;4309;42.658;23.380;2023-01-28T02:02:23;94159.56;;;0.65;90.28
8543;BME280;4309;42.658;23.380;2023-01-28T02:02:54;94157.13;;;0.72;89.82
8543;BME280;4309;42.658;23.380;2023-01-28T02:03:29;94157.91;;;0.72;89.83
8543;BME280;4309;42.658;23.380;2023-01-28T02:04:07;94163.69;;;0.52;89.94
8543;BME280;4309;42.658;23.380;2023-01-28T02:04:41;94169.75;;;0.59;89.89
8543;BME280;4309;42.658;23.380;2023-01-28T02:05:16;94160.97;;;0.53;89.75
8543;BME280;4309;42.658;23.380;2023-01-28T02:05:49;94163.19;;;0.56;90.26
8543;BME280;4309;42.658;23.380;2023-01-28T02:06:21;94165.53;;;0.43;89.86
8543;BME280;4309;42.658;23.380;2023-01-28T02:06:54;94158.72;;;0.50;89.77
8543;BME280;4309;42.658;23.380;2023-01-28T02:07:26;94161.78;;;0.46;90.09
8543;BME280;4309;42.658;23.380;2023-01-28T02:07:57;94170.25;;;0.54;90.26
8543;BME280;4309;42.658;23.380;2023-01-28T02:08:53;94171.34;;;0.60;90.69
8543;BME280;4309;42.658;23.380;2023-01-28T02:09:27;94169.22;;;0.63;90.49
8543;BME280;4309;42.658;23.380;2023-01-28T02:09:58;94159.03;;;0.70;89.56
8543;BME280;4309;42.658;23.380;2023-01-28T02:10:29;94163.84;;;0.73;90.05
8543;BME280;4309;42.658;23.380;2023-01-28T02:11:04;94164.03;;;0.71;88.88
8543;BME280;4309;42.658;23.380;2023-01-28T02:11:36;94165.22;;;0.61;89.23
8543;BME280;4309;42.658;23.380;2023-01-28T02:12:09;94167.34;;;0.57;88.84
8543;BME280;4309;42.658;23.380;2023-01-28T02:12:44;94166.53;;;0.57;89.48
8543;BME280;4309;42.658;23.380;2023-01-28T02:13:18;94171.34;;;0.60;89.77
8543;BME280;4309;42.658;23.380;2023-01-28T02:13:52;94164.47;;;0.52;90.00
8543;BME280;4309;42.658;23.380;2023-01-28T02:14:27;94166.72;;;0.55;89.52
8543;BME280;4309;42.658;23.380;2023-01-28T02:15:01;94169.22;;;0.63;90.19
8543;BME280;4309;42.658;23.380;2023-01-28T02:15:33;94166.13;;;0.68;89.74
8543;BME280;4309;42.658;23.380;2023-01-28T02:16:06;94173.66;;;0.69;90.35
8543;BME280;4309;42.658;23.380;2023-01-28T02:16:37;94165.19;;;0.69;90.49
8543;BME280;4309;42.658;23.380;2023-01-28T02:17:08;94176.25;;;0.69;89.28
8543;BME280;4309;42.658;23.380;2023-01-28T02:17:41;94161.78;;;0.68;88.83
8543;BME280;4309;42.658;23.380;2023-01-28T02:18:12;94170.16;;;0.70;89.70
8543;BME280;4309;42.658;23.380;2023-01-28T02:18:42;94164.81;;;0.72;88.75
8543;BME280;4309;42.658;23.380;2023-01-28T02:19:17;94168.22;;;0.72;89.58
8543;BME280;4309;42.658;23.380;2023-01-28T02:19:53;94169.81;;;0.73;89.53
8543;BME280;4309;42.658;23.380;2023-01-28T02:20:38;94164.25;;;0.62;89.77
8543;BME280;4309;42.658;23.380;2023-01-28T02:21:35;94175.94;;;0.72;88.88
8543;BME280;4309;42.658;23.380;2023-01-28T02:22:41;94173.25;;;0.66;88.74
8543;BME280;4309;42.658;23.380;2023-01-28T02:23:38;94164.75;;;0.80;89.14
8543;BME280;4309;42.658;23.380;2023-01-28T02:24:50;94165.00;;;0.70;89.15
8543;BME280;4309;42.658;23.380;2023-01-28T02:25:53;94176.22;;;0.55;89.52
8543;BME280;4309;42.658;23.380;2023-01-28T02:27:30;94176.47;;;0.60;89.42
8543;BME280;4309;42.658;23.380;2023-01-28T02:28:17;94168.16;;;0.58;88.75
8543;BME280;4309;42.658;23.380;2023-01-28T02:28:57;94175.34;;;0.62;88.93
8543;BME280;4309;42.658;23.380;2023-01-28T02:29:37;94165.75;;;0.56;90.04
8543;BME280;4309;42.658;23.380;2023-01-28T02:30:16;94178.91;;;0.61;90.05
8543;BME280;4309;42.658;23.380;2023-01-28T02:30:55;94163.13;;;0.64;89.54
8543;BME280;4309;42.658;23.380;2023-01-28T02:31:31;94170.72;;;0.58;89.29
8543;BME280;4309;42.658;23.380;2023-01-28T02:32:09;94169.84;;;0.65;89.63
8543;BME280;4309;42.658;23.380;2023-01-28T02:32:49;94174.72;;;0.60;90.02
8543;BME280;4309;42.658;23.380;2023-01-28T02:33:28;94170.09;;;0.56;89.45
8543;BME280;4309;42.658;23.380;2023-01-28T02:34:05;94176.16;;;0.63;89.28
8543;BME280;4309;42.658;23.380;2023-01-28T02:34:42;94172.13;;;0.60;90.06
8543;BME280;4309;42.658;23.380;2023-01-28T02:35:19;94170.09;;;0.56;89.20
8543;BME280;4309;42.658;23.380;2023-01-28T02:35:53;94171.34;;;0.60;90.31
8543;BME280;4309;42.658;23.380;2023-01-28T02:36:28;94163.91;;;0.65;89.65
8543;BME280;4309;42.658;23.380;2023-01-28T02:37:07;94166.25;;;0.74;88.79
8543;BME280;4309;42.658;23.380;2023-01-28T02:37:46;94170.59;;;0.74;89.28
8543;BME280;4309;42.658;23.380;2023-01-28T02:38:22;94170.44;;;0.75;88.80
8543;BME280;4309;42.658;23.380;2023-01-28T02:39:00;94168.28;;;0.79;88.77
8543;BME280;4309;42.658;23.380;2023-01-28T02:39:37;94174.06;;;0.81;87.96
8543;BME280;4309;42.658;23.380;2023-01-28T02:40:13;94167.78;;;0.83;88.53
8543;BME280;4309;42.658;23.380;2023-01-28T02:40:50;94171.31;;;0.82;88.54
8543;BME280;4309;42.658;23.380;2023-01-28T02:41:35;94176.94;;;0.86;87.95
8543;BME280;4309;42.658;23.380;2023-01-28T02:42:10;94169.22;;;0.86;88.50
8543;BME280;4309;42.658;23.380;2023-01-28T02:42:42;94175.59;;;0.75;88.04
8543;BME280;4309;42.658;23.380;2023-01-28T02:43:15;94175.34;;;0.85;88.19
8543;BME280;4309;42.658;23.380;2023-01-28T02:43:47;94172.91;;;0.83;87.34
8543;BME280;4309;42.658;23.380;2023-01-28T02:44:17;94182.06;;;0.86;87.28
8543;BME280;4309;42.658;23.380;2023-01-28T02:44:48;94169.09;;;0.79;87.23
8543;BME280;4309;42.658;23.380;2023-01-28T02:45:21;94172.03;;;0.76;88.40
8543;BME280;4309;42.658;23.380;2023-01-28T02:45:53;94171.03;;;0.77;87.90
8543;BME280;4309;42.658;23.380;2023-01-28T02:46:42;94178.31;;;0.74;87.83
8543;BME280;4309;42.658;23.380;2023-01-28T02:47:31;94175.94;;;0.72;88.62
8543;BME280;4309;42.658;23.380;2023-01-28T02:48:21;94177.69;;;0.72;89.05
8543;BME280;4309;42.658;23.380;2023-01-28T02:48:53;94160.75;;;0.77;88.37
8543;BME280;4309;42.658;23.380;2023-01-28T02:49:27;94176.94;;;0.86;88.05
8543;BME280;4309;42.658;23.380;2023-01-28T02:50:02;94170.97;;;0.85;88.85
8543;BME280;4309;42.658;23.380;2023-01-28T02:50:41;94173.63;;;0.77;87.53
8543;BME280;4309;42.658;23.380;2023-01-28T02:51:29;94176.47;;;0.82;88.20
8543;BME280;4309;42.658;23.380;2023-01-28T02:52:15;94169.56;;;0.83;88.05
8543;BME280;4309;42.658;23.380;2023-01-28T02:52:57;94175.94;;;0.87;88.12
8543;BME280;4309;42.658;23.380;2023-01-28T02:53:53;94179.22;;;0.81;87.21
8543;BME280;4309;42.658;23.380;2023-01-28T02:54:34;94178.41;;;0.80;88.39
8543;BME280;4309;42.658;23.380;2023-01-28T02:55:14;94171.69;;;0.79;87.62
8543;BME280;4309;42.658;23.380;2023-01-28T02:55:52;94169.28;;;0.78;88.21
8543;BME280;4309;42.658;23.380;2023-01-28T02:56:30;94173.91;;;0.82;87.93
8543;BME280;4309;42.658;23.380;2023-01-28T02:57:14;94178.59;;;0.79;88.28
8543;BME280;4309;42.658;23.380;2023-01-28T02:57:59;94177.09;;;0.84;88.12
8543;BME280;4309;42.658;23.380;2023-01-28T02:58:36;94174.53;;;0.84;88.83
8543;BME280;4309;42.658;23.380;2023-01-28T02:59:13;94168.41;;;0.85;88.87
8543;BME280;4309;42.658;23.380;2023-01-28T03:00:07;94178.06;;;0.83;88.25
8543;BME280;4309;42.658;23.380;2023-01-28T03:00:47;94175.22;;;0.78;87.83
8543;BME280;4309;42.658;23.380;2023-01-28T03:01:24;94174.72;;;0.83;87.88
8543;BME280;4309;42.658;23.380;2023-01-28T03:02:00;94180.91;;;0.74;87.51
8543;BME280;4309;42.658;23.380;2023-01-28T03:02:36;94182.78;;;0.80;88.26
8543;BME280;4309;42.658;23.380;2023-01-28T03:03:14;94177.88;;;0.70;88.47
8543;BME280;4309;42.658;23.380;2023-01-28T03:03:57;94170.94;;;0.71;87.91
8543;BME280;4309;42.658;23.380;2023-01-28T03:04:31;94173.41;;;0.64;87.66
8543;BME280;4309;42.658;23.380;2023-01-28T03:05:06;94172.53;;;0.49;87.17
8543;BME280;4309;42.658;23.380;2023-01-28T03:05:41;94185.00;;;0.60;87.65
8543;BME280;4309;42.658;23.380;2023-01-28T03:06:36;94179.97;;;0.67;88.10
8543;BME280;4309;42.658;23.380;2023-01-28T03:07:09;94174.53;;;0.62;87.71
8543;BME280;4309;42.658;23.380;2023-01-28T03:07:42;94186.88;;;0.66;88.37